Time;durP1;ratioP1;P1;durP2;ratioP2;P2;SDS_P1;SDS_P2;PMS_P1;PMS_P2;Temp;Humidity;BMP_temperature;BMP_pressure;BME280_temperature;BME280_humidity;BME280_pressure;Samples;Min_cycle;Max_cycle;Signal;HPM_P1;HPM_P2
2021/08/22 00:27:21;;;;;;;8.83;7.90;;;22.70;99.90;;;;;;1283549;26;20445;-85
2021/08/22 00:31:51;;;;;;;7.77;6.97;;;22.50;99.90;;;;;;5075016;28;20603;-85
2021/08/22 00:34:32;;;;;;;8.63;6.90;;;22.30;99.90;;;;;;4940874;28;20475;-86
2021/08/22 00:50:07;;;;;;;;;;;;;;;;;;;;;
2021/08/22 01:01:30;;;;;;;;;;;;;;;;;;;;;
2021/08/22 01:12:49;;;;;;;8.40;7.60;;;21.60;99.90;;;;;;4964586;28;20470;-83
2021/08/22 01:24:00;;;;;;;;;;;;;;;;;;;;;
2021/08/22 01:26:43;;;;;;;6.83;6.20;;;21.80;99.90;;;;;;5023714;28;20465;-84
2021/08/22 01:29:16;;;;;;;10.73;5.10;;;21.60;99.90;;;;;;5036502;28;20559;-86
2021/08/22 01:32:00;;;;;;;7.20;5.70;;;21.60;99.90;;;;;;5032652;28;20843;-85
2021/08/22 01:34:41;;;;;;;7.67;5.83;;;21.50;99.90;;;;;;5041098;28;20457;-85
2021/08/22 01:37:19;;;;;;;6.20;5.10;;;21.70;99.90;;;;;;5029076;28;20465;-86
2021/08/22 01:40:08;;;;;;;5.63;5.13;;;21.50;99.90;;;;;;5051566;28;20457;-86
2021/08/22 01:45:55;;;;;;;6.10;5.50;;;21.30;99.90;;;;;;5026949;28;20458;-85
2021/08/22 01:48:31;;;;;;;6.13;5.53;;;21.20;99.90;;;;;;5043820;28;20453;-86
2021/08/22 01:51:05;;;;;;;5.67;4.90;;;21.20;99.90;;;;;;5047102;28;20445;-85
2021/08/22 01:54:08;;;;;;;4.83;4.43;;;21.10;99.90;;;;;;5028743;28;20855;-85
2021/08/22 01:56:59;;;;;;;4.03;3.73;;;21.10;99.90;;;;;;5030080;28;20481;-84
2021/08/22 01:59:48;;;;;;;4.67;4.30;;;21.10;99.90;;;;;;5029866;28;20445;-84
2021/08/22 02:02:52;;;;;;;5.10;4.60;;;21.00;99.90;;;;;;5036882;28;20470;-85
2021/08/22 02:05:28;;;;;;;6.00;4.40;;;21.00;99.90;;;;;;5029900;28;20473;-84
2021/08/22 02:08:19;;;;;;;5.03;4.53;;;21.00;99.90;;;;;;5025868;28;20931;-87
2021/08/22 02:11:21;;;;;;;4.93;4.30;;;20.90;99.90;;;;;;5040082;28;20839;-84
2021/08/22 02:13:56;;;;;;;5.20;4.80;;;21.00;99.90;;;;;;5041921;28;20450;-86
2021/08/22 02:16:36;;;;;;;5.60;5.00;;;21.20;99.90;;;;;;5040267;28;20503;-85
2021/08/22 02:19:04;;;;;;;6.10;4.57;;;21.10;99.90;;;;;;5049283;28;20448;-84
2021/08/22 02:21:31;;;;;;;5.50;5.00;;;21.20;99.90;;;;;;5053577;28;20460;-86
2021/08/22 02:23:58;;;;;;;6.40;5.40;;;21.30;99.90;;;;;;5036437;28;20445;-85
2021/08/22 02:26:25;;;;;;;5.70;5.20;;;21.20;99.90;;;;;;5049141;28;20520;-87
2021/08/22 02:28:56;;;;;;;5.87;4.90;;;21.10;99.90;;;;;;5056291;28;20470;-85
2021/08/22 02:31:32;;;;;;;5.30;4.80;;;21.00;99.90;;;;;;5041407;28;20499;-85
2021/08/22 02:34:13;;;;;;;5.97;5.47;;;21.00;99.90;;;;;;5018156;28;20445;-84
2021/08/22 02:36:51;;;;;;;6.73;5.37;;;21.00;99.90;;;;;;5029255;28;20517;-83
2021/08/22 02:39:31;;;;;;;6.53;5.60;;;21.00;99.90;;;;;;5027803;28;20828;-85
2021/08/22 02:42:12;;;;;;;6.60;6.03;;;21.00;99.90;;;;;;5007321;28;20458;-84
2021/08/22 02:44:44;;;;;;;6.53;6.03;;;21.00;99.90;;;;;;5016729;28;20997;-83
2021/08/22 02:47:17;;;;;;;8.83;5.77;;;21.20;99.90;;;;;;5004242;28;20529;-82
2021/08/22 02:49:44;;;;;;;8.00;6.10;;;21.10;99.90;;;;;;5023627;28;20472;-83
2021/08/22 02:52:10;;;;;;;6.20;5.67;;;21.10;99.90;;;;;;5042708;28;20834;-85
2021/08/22 02:54:37;;;;;;;7.37;6.60;;;21.10;99.90;;;;;;5042198;28;20472;-85
2021/08/22 02:57:13;;;;;;;6.97;5.87;;;21.00;99.90;;;;;;5058090;28;20448;-85
2021/08/22 02:59:50;;;;;;;8.10;6.70;;;20.90;99.90;;;;;;5027383;28;20982;-83
2021/08/22 03:02:32;;;;;;;8.20;7.10;;;20.90;99.90;;;;;;5025984;28;20460;-86
2021/08/22 03:05:12;;;;;;;6.10;5.60;;;20.90;99.90;;;;;;5042938;28;20477;-83
2021/08/22 03:07:54;;;;;;;7.03;6.43;;;21.10;99.90;;;;;;5025454;28;20453;-84
2021/08/22 03:10:40;;;;;;;8.90;6.60;;;21.00;99.90;;;;;;5013779;28;20687;-84
2021/08/22 03:13:25;;;;;;;7.10;6.50;;;20.90;99.90;;;;;;5027314;28;20613;-86
2021/08/22 03:16:08;;;;;;;6.60;6.00;;;20.90;99.90;;;;;;5009180;28;20477;-84
2021/08/22 03:18:57;;;;;;;6.20;5.70;;;20.90;99.90;;;;;;5023216;28;20438;-84
2021/08/22 03:21:30;;;;;;;7.23;6.67;;;21.00;99.90;;;;;;5049706;28;20445;-87
2021/08/22 03:24:31;;;;;;;6.73;6.20;;;20.90;99.90;;;;;;5024580;28;20449;-86
2021/08/22 03:27:07;;;;;;;7.07;6.57;;;20.90;99.90;;;;;;5008973;28;20449;-85
2021/08/22 03:29:53;;;;;;;6.87;6.33;;;20.90;99.90;;;;;;5026128;28;20465;-84
2021/08/22 03:32:50;;;;;;;7.50;6.73;;;20.90;99.90;;;;;;5023703;28;20572;-85
2021/08/22 03:35:34;;;;;;;7.77;7.03;;;20.90;99.90;;;;;;5022417;28;20473;-85
2021/08/22 03:38:18;;;;;;;7.47;6.87;;;20.90;99.90;;;;;;4344759;28;10000217;-85
2021/08/22 03:40:55;;;;;;;8.13;7.50;;;20.90;99.90;;;;;;5012586;28;20199;-85
2021/08/22 03:43:37;;;;;;;8.90;8.07;;;20.90;99.90;;;;;;5022804;28;20456;-83
2021/08/22 03:46:13;;;;;;;8.97;8.17;;;20.90;99.90;;;;;;5034619;28;20496;-84
2021/08/22 03:48:54;;;;;;;8.67;7.87;;;20.80;99.90;;;;;;5023534;28;20787;-85
2021/08/22 03:51:36;;;;;;;8.80;8.10;;;20.80;99.90;;;;;;5034155;28;20454;-85
2021/08/22 03:54:32;;;;;;;9.57;8.57;;;20.70;99.90;;;;;;5032168;28;20469;-85
2021/08/22 03:57:09;;;;;;;9.53;8.60;;;20.70;99.90;;;;;;5045982;28;21037;-83
2021/08/22 03:59:54;;;;;;;9.20;8.20;;;20.70;99.90;;;;;;5031963;28;20488;-85
2021/08/22 04:02:30;;;;;;;9.50;8.70;;;20.60;99.90;;;;;;5027719;28;20449;-83
2021/08/22 04:05:17;;;;;;;11.33;10.27;;;20.70;99.90;;;;;;5036364;28;20499;-86
2021/08/22 04:07:54;;;;;;;9.53;8.63;;;20.60;99.90;;;;;;5037102;28;20537;-84
2021/08/22 04:10:54;;;;;;;9.87;8.97;;;20.70;99.90;;;;;;5039729;28;20440;-85
2021/08/22 04:13:38;;;;;;;9.70;8.90;;;20.60;99.90;;;;;;5038348;28;20511;-86
2021/08/22 04:16:11;;;;;;;13.33;9.63;;;20.60;99.90;;;;;;4961429;28;20477;-86
2021/08/22 04:18:46;;;;;;;10.67;9.67;;;20.60;99.90;;;;;;4961415;28;20451;-86
2021/08/22 04:21:47;;;;;;;10.70;9.67;;;20.50;99.90;;;;;;4909297;29;20451;-84
2021/08/22 04:24:41;;;;;;;11.60;10.60;;;20.60;99.90;;;;;;4903716;29;20499;-85
2021/08/22 04:27:40;;;;;;;12.13;10.83;;;20.50;99.90;;;;;;4897733;29;20904;-85
2021/08/22 04:30:23;;;;;;;10.90;9.77;;;20.50;99.90;;;;;;4888240;29;20494;-83
2021/08/22 04:33:31;;;;;;;13.63;10.67;;;20.50;99.90;;;;;;4885217;29;20536;-85
2021/08/22 04:36:58;;;;;;;12.67;11.03;;;20.50;99.90;;;;;;4968433;28;20455;-85
2021/08/22 04:39:42;;;;;;;14.60;12.50;;;20.50;99.90;;;;;;4976248;28;20461;-86
2021/08/22 04:42:21;;;;;;;14.40;12.90;;;20.50;99.90;;;;;;4966976;28;20552;-85
2021/08/22 04:44:59;;;;;;;14.13;12.30;;;20.50;99.90;;;;;;4983519;28;20479;-84
2021/08/22 04:47:36;;;;;;;14.37;12.97;;;20.40;99.90;;;;;;4983626;28;20463;-86
2021/08/22 04:50:20;;;;;;;12.40;11.30;;;20.40;99.90;;;;;;4967670;28;20502;-84
2021/08/22 04:53:06;;;;;;;12.80;11.50;;;20.30;99.90;;;;;;4991162;28;20485;-84
2021/08/22 04:55:57;;;;;;;13.03;11.73;;;20.30;99.90;;;;;;5016769;28;20558;-85
2021/08/22 04:58:41;;;;;;;13.03;10.80;;;20.30;99.90;;;;;;5043096;28;20469;-84
2021/08/22 05:01:33;;;;;;;12.63;11.43;;;20.30;99.90;;;;;;5030972;28;20452;-84
2021/08/22 05:04:15;;;;;;;13.73;11.63;;;20.30;99.90;;;;;;5027179;28;20449;-85
2021/08/22 05:06:56;;;;;;;13.27;11.80;;;20.30;99.90;;;;;;5028818;28;20448;-84
2021/08/22 05:09:46;;;;;;;12.43;11.07;;;20.30;99.90;;;;;;5027182;28;20445;-86
2021/08/22 05:12:20;;;;;;;11.97;10.73;;;20.30;99.90;;;;;;5032300;28;20552;-85
2021/08/22 05:15:22;;;;;;;15.23;11.70;;;20.30;99.90;;;;;;5027634;28;20741;-86
2021/08/22 05:17:59;;;;;;;12.53;11.23;;;20.30;99.90;;;;;;5033903;28;20880;-84
2021/08/22 05:20:45;;;;;;;12.47;11.20;;;20.20;99.90;;;;;;5029014;28;20499;-84
2021/08/22 05:23:22;;;;;;;11.57;10.33;;;20.30;99.90;;;;;;5044465;28;20460;-85
2021/08/22 05:25:54;;;;;;;12.37;11.27;;;20.20;99.90;;;;;;5027145;28;20478;-86
2021/08/22 05:28:37;;;;;;;11.63;10.43;;;20.20;99.90;;;;;;5027359;28;20453;-85
2021/08/22 05:31:24;;;;;;;12.00;10.90;;;20.20;99.90;;;;;;5040546;28;20479;-85
2021/08/22 05:34:09;;;;;;;12.00;10.77;;;20.20;99.90;;;;;;5025149;28;20477;-84
2021/08/22 05:36:46;;;;;;;12.47;11.33;;;20.30;99.90;;;;;;5043485;28;20569;-85
2021/08/22 05:39:23;;;;;;;11.83;10.77;;;20.30;99.90;;;;;;5026601;28;21021;-86
2021/08/22 05:41:56;;;;;;;11.60;10.47;;;20.30;99.90;;;;;;5043542;28;20516;-84
2021/08/22 05:44:23;;;;;;;12.70;11.47;;;20.30;99.90;;;;;;5025864;28;20477;-86
2021/08/22 05:47:07;;;;;;;12.23;11.00;;;20.30;99.90;;;;;;5012230;28;20475;-86
2021/08/22 05:52:40;;;;;;;11.40;10.20;;;20.30;99.90;;;;;;5034437;28;20504;-86
2021/08/22 05:55:27;;;;;;;11.80;10.70;;;20.30;99.90;;;;;;5008914;28;20517;-85
2021/08/22 05:58:06;;;;;;;13.43;11.00;;;20.30;99.90;;;;;;5017624;28;20448;-85
2021/08/22 06:00:45;;;;;;;11.80;10.50;;;20.40;99.90;;;;;;5031800;28;20453;-85
2021/08/22 06:03:23;;;;;;;13.17;10.83;;;20.40;99.90;;;;;;5035957;28;20445;-85
2021/08/22 06:06:19;;;;;;;13.73;12.33;;;21.00;99.90;;;;;;5023405;28;20564;-85
2021/08/22 06:09:16;;;;;;;12.83;11.40;;;21.40;99.90;;;;;;5014527;28;20802;-85
2021/08/22 06:11:57;;;;;;;12.77;11.40;;;23.40;99.90;;;;;;5033328;28;20497;-85
2021/08/22 06:14:45;;;;;;;11.57;10.47;;;25.80;97.10;;;;;;5017517;28;20486;-85
2021/08/22 06:17:17;;;;;;;10.97;10.00;;;26.30;93.70;;;;;;5052865;28;20430;-86
2021/08/22 06:19:56;;;;;;;11.53;10.27;;;25.40;94.90;;;;;;5021592;28;20450;-86
2021/08/22 06:22:46;;;;;;;11.47;10.40;;;24.70;95.40;;;;;;5028198;28;20466;-85
2021/08/22 06:25:55;;;;;;;10.03;9.13;;;23.70;97.30;;;;;;5043284;28;20524;-84
2021/08/22 06:28:44;;;;;;;9.33;8.43;;;22.50;99.10;;;;;;5025709;28;20473;-86
2021/08/22 06:31:32;;;;;;;8.77;7.87;;;21.90;99.90;;;;;;5020560;28;20442;-87
2021/08/22 06:34:16;;;;;;;9.40;8.50;;;21.30;99.90;;;;;;5022351;28;20478;-86
2021/08/22 06:36:54;;;;;;;9.90;8.30;;;21.70;99.90;;;;;;5025628;28;20486;-86
2021/08/22 06:39:47;;;;;;;8.87;7.87;;;22.30;99.90;;;;;;5029830;28;20485;-86
2021/08/22 06:42:38;;;;;;;8.93;8.13;;;23.00;99.60;;;;;;5029033;28;20564;-87
2021/08/22 06:45:21;;;;;;;10.60;7.00;;;22.60;99.40;;;;;;5026466;28;20491;-86
2021/08/22 06:48:07;;;;;;;8.57;7.77;;;22.30;99.90;;;;;;5043090;28;20441;-86
2021/08/22 06:51:01;;;;;;;7.70;6.90;;;21.60;99.90;;;;;;5021575;28;20533;-87
2021/08/22 06:53:38;;;;;;;7.87;7.07;;;21.30;99.90;;;;;;5018249;28;20482;-86
2021/08/22 06:56:17;;;;;;;7.73;7.07;;;21.50;99.90;;;;;;5024014;28;20993;-86
2021/08/22 06:58:51;;;;;;;8.43;7.50;;;21.60;99.90;;;;;;5006518;28;20486;-86
2021/08/22 07:01:26;;;;;;;8.87;6.80;;;21.20;99.90;;;;;;5033294;28;20780;-86
2021/08/22 07:03:56;;;;;;;7.30;6.70;;;21.10;99.90;;;;;;5041131;28;20528;-86
2021/08/22 07:06:37;;;;;;;7.27;6.60;;;21.20;99.90;;;;;;5027261;28;20477;-84
2021/08/22 07:09:14;;;;;;;6.70;6.10;;;21.10;99.90;;;;;;5027346;28;21006;-84
2021/08/22 07:11:48;;;;;;;6.50;5.77;;;21.10;99.90;;;;;;5013892;28;20462;-85
2021/08/22 07:14:34;;;;;;;6.83;6.20;;;20.90;99.90;;;;;;5026083;28;21013;-84
2021/08/22 07:17:03;;;;;;;7.67;7.00;;;20.90;99.90;;;;;;5023543;28;20476;-86
2021/08/22 07:19:37;;;;;;;6.57;5.87;;;21.40;99.90;;;;;;5020659;28;20450;-86
2021/08/22 07:22:05;;;;;;;6.20;5.70;;;21.60;99.90;;;;;;5022443;28;20458;-86
2021/08/22 07:24:45;;;;;;;7.23;6.03;;;21.60;99.90;;;;;;5043507;28;20484;-86
2021/08/22 07:27:16;;;;;;;7.33;6.63;;;21.50;99.90;;;;;;5028374;28;20450;-85
2021/08/22 07:33:05;;;;;;;6.17;5.67;;;21.60;99.90;;;;;;5031981;28;20833;-84
2021/08/22 07:35:40;;;;;;;8.10;5.87;;;21.70;99.90;;;;;;5038763;28;20472;-85
2021/08/22 07:38:10;;;;;;;6.67;6.00;;;21.70;99.90;;;;;;5008019;28;20453;-85
2021/08/22 07:40:55;;;;;;;6.83;5.63;;;21.40;99.90;;;;;;5009394;28;20434;-85
2021/08/22 07:43:22;;;;;;;6.13;5.40;;;21.30;99.90;;;;;;5025863;28;20520;-85
2021/08/22 07:45:51;;;;;;;6.47;5.87;;;21.30;99.90;;;;;;5026930;28;20485;-85
2021/08/22 07:48:42;;;;;;;4.93;4.37;;;21.70;99.90;;;;;;5044417;28;20939;-86
2021/08/22 07:51:16;;;;;;;4.53;4.13;;;23.70;99.90;;;;;;5019991;28;20541;-87
2021/08/22 07:54:12;;;;;;;6.50;5.90;;;25.40;95.20;;;;;;5017456;28;20485;-86
2021/08/22 07:57:03;;;;;;;5.60;5.10;;;25.20;94.60;;;;;;4998034;28;20430;-84
2021/08/22 08:00:00;;;;;;;6.13;4.97;;;23.80;96.00;;;;;;5024870;28;20448;-84
2021/08/22 08:02:31;;;;;;;5.67;5.17;;;22.90;97.80;;;;;;5035122;28;20439;-85
2021/08/22 08:05:06;;;;;;;4.90;4.40;;;22.30;99.50;;;;;;5018330;28;20470;-84
2021/08/22 08:07:42;;;;;;;5.33;4.80;;;22.10;99.90;;;;;;5013766;28;20498;-85
2021/08/22 08:10:12;;;;;;;5.97;5.37;;;22.10;99.90;;;;;;5040039;28;20445;-85
2021/08/22 08:12:51;;;;;;;5.30;4.80;;;21.70;99.90;;;;;;5056701;28;20491;-84
2021/08/22 08:15:33;;;;;;;5.30;4.80;;;21.60;99.90;;;;;;5037825;28;20513;-85
2021/08/22 08:18:04;;;;;;;5.67;5.20;;;21.40;99.90;;;;;;5023531;28;20489;-86
2021/08/22 08:20:37;;;;;;;6.20;4.97;;;21.60;99.90;;;;;;5023803;28;20454;-84
2021/08/22 08:23:08;;;;;;;5.97;5.37;;;21.40;99.90;;;;;;5021336;28;20454;-86
2021/08/22 08:25:44;;;;;;;6.50;5.93;;;21.30;99.90;;;;;;5020696;28;20508;-85
2021/08/22 08:28:31;;;;;;;7.97;5.10;;;21.70;99.90;;;;;;5021502;28;20446;-85
2021/08/22 08:31:09;;;;;;;5.57;5.07;;;21.40;99.90;;;;;;5026481;28;20464;-86
2021/08/22 08:33:48;;;;;;;5.57;5.17;;;21.10;99.90;;;;;;5022021;28;20478;-85
2021/08/22 08:36:21;;;;;;;6.47;5.53;;;20.90;99.90;;;;;;5023032;28;20460;-85
2021/08/22 08:38:56;;;;;;;5.50;4.93;;;21.00;99.90;;;;;;5023249;28;20453;-85
2021/08/22 08:41:35;;;;;;;7.27;6.60;;;21.20;99.90;;;;;;5028398;28;20421;-84
2021/08/22 08:44:14;;;;;;;9.37;7.43;;;21.70;99.90;;;;;;5023770;28;20462;-84
2021/08/22 08:46:51;;;;;;;7.77;7.07;;;21.70;99.90;;;;;;5005933;28;20446;-86
2021/08/22 08:50:02;;;;;;;6.50;5.90;;;21.70;99.90;;;;;;4990766;28;20524;-84
2021/08/22 08:52:45;;;;;;;7.77;6.93;;;21.60;99.90;;;;;;5028065;28;20610;-85
2021/08/22 08:55:41;;;;;;;7.13;6.53;;;21.90;99.90;;;;;;5025824;28;20445;-86
2021/08/22 08:58:13;;;;;;;8.40;7.40;;;22.30;99.90;;;;;;5028495;28;20430;-85
2021/08/22 09:00:59;;;;;;;9.93;7.83;;;22.10;99.90;;;;;;5043876;28;20464;-86
2021/08/22 09:03:31;;;;;;;9.60;7.10;;;21.90;99.90;;;;;;5027116;28;20708;-85
2021/08/22 09:06:37;;;;;;;7.50;6.70;;;23.20;99.90;;;;;;5018216;28;20560;-86
2021/08/22 09:09:42;;;;;;;7.30;6.60;;;25.10;99.90;;;;;;5023448;28;20822;-84
2021/08/22 09:13:32;;;;;;;6.93;6.33;;;25.10;97.00;;;;;;5032297;28;20564;-85
2021/08/22 09:16:46;;;;;;;7.37;6.57;;;23.80;99.20;;;;;;5026735;28;20530;-85
2021/08/22 09:19:52;;;;;;;8.03;7.10;;;23.00;99.90;;;;;;5038115;28;20471;-84
2021/08/22 09:23:04;;;;;;;10.60;9.47;;;22.50;99.90;;;;;;5050237;28;20452;-83
2021/08/22 09:26:12;;;;;;;9.17;8.33;;;22.10;99.90;;;;;;5026271;28;20488;-84
2021/08/22 09:29:17;;;;;;;9.10;8.30;;;21.90;99.90;;;;;;5028749;28;20453;-83
2021/08/22 09:32:35;;;;;;;9.60;8.60;;;21.90;99.90;;;;;;5035531;28;20448;-84
2021/08/22 09:35:15;;;;;;;8.60;7.80;;;22.40;99.90;;;;;;4994192;28;20513;-84
2021/08/22 09:38:03;;;;;;;8.40;7.60;;;22.40;99.90;;;;;;5029891;28;20538;-86
2021/08/22 09:40:58;;;;;;;7.53;6.93;;;22.30;99.90;;;;;;5046462;28;20449;-84
2021/08/22 09:44:00;;;;;;;7.80;7.13;;;22.30;99.90;;;;;;5028610;28;20520;-85
2021/08/22 09:47:08;;;;;;;7.93;7.13;;;22.30;99.90;;;;;;5028782;28;20489;-87
2021/08/22 09:50:06;;;;;;;7.10;6.40;;;22.30;99.90;;;;;;5043394;28;20541;-83
2021/08/22 09:53:03;;;;;;;7.40;6.80;;;22.80;99.90;;;;;;5024670;28;20460;-86
2021/08/22 09:55:43;;;;;;;7.87;7.17;;;23.40;99.90;;;;;;5031076;28;20457;-86
2021/08/22 09:58:29;;;;;;;6.93;6.23;;;23.40;99.90;;;;;;5072543;28;20776;-86
2021/08/22 10:01:15;;;;;;;8.43;7.47;;;23.40;99.90;;;;;;5037953;28;20461;-84
2021/08/22 10:04:04;;;;;;;6.80;6.23;;;23.20;99.90;;;;;;5029142;28;20446;-86
2021/08/22 10:06:40;;;;;;;5.97;5.50;;;22.70;99.90;;;;;;5047300;28;20448;-87
2021/08/22 10:09:16;;;;;;;6.20;5.70;;;22.40;99.90;;;;;;5047741;28;20473;-86
2021/08/22 10:12:16;;;;;;;6.43;5.80;;;22.30;99.90;;;;;;5024288;28;20453;-86
2021/08/22 10:14:43;;;;;;;6.30;5.70;;;22.50;99.60;;;;;;5015772;28;20568;-87
2021/08/22 10:17:18;;;;;;;6.03;5.53;;;22.20;99.90;;;;;;5025308;28;20522;-87
2021/08/22 10:19:46;;;;;;;6.50;5.43;;;22.10;99.90;;;;;;5043613;28;20453;-86
2021/08/22 10:22:19;;;;;;;6.60;5.97;;;21.90;99.90;;;;;;5029163;28;20450;-86
2021/08/22 10:24:58;;;;;;;5.97;5.47;;;21.90;99.90;;;;;;5015754;28;20484;-85
2021/08/22 10:27:34;;;;;;;6.20;5.60;;;21.80;99.90;;;;;;5028880;28;20457;-87
2021/08/22 10:30:03;;;;;;;8.50;5.70;;;22.20;99.90;;;;;;5032037;28;20466;-88
2021/08/22 10:32:51;;;;;;;4.90;4.50;;;22.90;99.90;;;;;;5027661;28;20453;-88
2021/08/22 10:35:19;;;;;;;4.80;4.30;;;24.00;96.50;;;;;;5029261;28;20481;-86
2021/08/22 10:37:46;;;;;;;5.27;4.43;;;24.80;95.00;;;;;;5018563;28;20450;-86
2021/08/22 10:40:25;;;;;;;4.50;4.20;;;25.10;93.00;;;;;;5036769;28;20453;-87
2021/08/22 10:43:04;;;;;;;5.13;4.77;;;25.30;92.60;;;;;;5037700;28;20556;-85
2021/08/22 10:45:40;;;;;;;5.10;4.60;;;25.40;91.90;;;;;;5045243;28;20517;-87
2021/08/22 10:48:09;;;;;;;5.33;3.97;;;25.30;92.00;;;;;;5031350;28;20437;-86
2021/08/22 10:50:57;;;;;;;5.23;4.27;;;25.20;91.70;;;;;;5034923;28;20481;-85
2021/08/22 10:53:25;;;;;;;4.33;3.57;;;25.60;91.50;;;;;;5057966;28;20449;-85
2021/08/22 10:55:52;;;;;;;4.70;3.97;;;25.60;90.10;;;;;;5054498;28;20479;-85
2021/08/22 10:58:20;;;;;;;4.17;3.77;;;25.10;90.80;;;;;;5056384;28;20441;-86
2021/08/22 11:00:47;;;;;;;4.17;3.77;;;24.90;90.80;;;;;;5058562;28;20425;-86
2021/08/22 11:03:17;;;;;;;4.10;3.70;;;24.60;90.40;;;;;;5038821;28;20472;-87
2021/08/22 11:05:45;;;;;;;3.73;3.43;;;24.40;90.70;;;;;;5046198;28;20488;-85
2021/08/22 11:08:14;;;;;;;3.33;3.03;;;24.10;90.80;;;;;;5034655;28;20453;-86
2021/08/22 11:11:04;;;;;;;3.97;3.67;;;24.00;90.50;;;;;;5035929;28;20449;-86
2021/08/22 11:13:33;;;;;;;3.27;3.07;;;23.90;91.20;;;;;;5047232;28;20461;-87
2021/08/22 11:16:05;;;;;;;3.87;3.53;;;23.90;91.10;;;;;;5047195;28;20465;-86
2021/08/22 11:18:37;;;;;;;4.63;3.77;;;23.80;91.10;;;;;;5044368;28;20464;-86
2021/08/22 11:21:04;;;;;;;5.27;3.50;;;23.90;90.80;;;;;;5028776;28;20445;-86
2021/08/22 11:23:31;;;;;;;3.93;3.40;;;23.90;90.00;;;;;;5052651;28;20452;-88
2021/08/22 11:26:20;;;;;;;3.47;3.17;;;24.00;88.60;;;;;;5036189;28;20452;-85
2021/08/22 11:29:03;;;;;;;5.23;3.40;;;24.30;87.00;;;;;;5026194;28;20449;-87
2021/08/22 11:31:35;;;;;;;3.93;3.07;;;24.30;85.10;;;;;;5045244;28;20458;-86
2021/08/22 11:34:14;;;;;;;3.13;2.80;;;24.30;85.80;;;;;;5040059;28;21437;-86
2021/08/22 11:36:46;;;;;;;3.70;3.30;;;24.60;85.10;;;;;;5032531;28;20455;-86
2021/08/22 11:39:19;;;;;;;3.60;3.30;;;24.90;83.30;;;;;;5038608;28;20446;-86
2021/08/22 11:41:49;;;;;;;4.03;3.73;;;25.30;80.80;;;;;;5008285;28;20457;-88
2021/08/22 11:44:24;;;;;;;3.47;3.17;;;25.50;79.70;;;;;;5032281;28;20445;-85
2021/08/22 11:46:53;;;;;;;3.70;3.40;;;25.50;77.50;;;;;;5045102;28;20461;-86
2021/08/22 11:49:21;;;;;;;5.40;3.53;;;25.50;76.90;;;;;;5029856;28;20430;-85
2021/08/22 11:51:50;;;;;;;3.70;3.37;;;25.40;77.40;;;;;;5032371;28;20449;-89
2021/08/22 11:54:18;;;;;;;5.27;3.40;;;25.20;77.80;;;;;;5035263;28;20461;-87
2021/08/22 11:56:46;;;;;;;4.23;3.30;;;25.10;78.60;;;;;;5039312;28;20442;-87
2021/08/22 11:59:42;;;;;;;5.30;3.70;;;25.10;79.10;;;;;;5056910;28;20548;-85
2021/08/22 12:02:20;;;;;;;4.03;3.23;;;25.40;78.70;;;;;;5019510;28;20442;-88
2021/08/22 12:04:47;;;;;;;3.77;3.37;;;25.30;76.80;;;;;;5039348;28;20480;-88
2021/08/22 12:07:19;;;;;;;3.43;3.10;;;25.10;77.60;;;;;;5040407;28;20456;-87
2021/08/22 12:09:50;;;;;;;3.33;3.03;;;24.90;79.00;;;;;;5050067;28;20426;-86
2021/08/22 12:12:23;;;;;;;3.80;3.23;;;25.00;79.50;;;;;;5023626;28;20458;-85
2021/08/22 12:14:50;;;;;;;5.80;3.17;;;25.80;76.50;;;;;;5039835;28;20581;-87
2021/08/22 12:17:24;;;;;;;4.20;3.10;;;25.40;77.70;;;;;;5015113;28;20511;-85
2021/08/22 12:19:51;;;;;;;6.07;3.37;;;25.00;79.60;;;;;;5033174;28;20456;-88
2021/08/22 12:22:26;;;;;;;3.97;3.10;;;25.10;80.50;;;;;;5036664;28;20456;-86
2021/08/22 12:24:54;;;;;;;3.03;2.73;;;25.20;79.70;;;;;;5025153;28;20488;-87
2021/08/22 12:27:30;;;;;;;3.83;3.37;;;25.00;78.70;;;;;;5044406;28;20511;-88
2021/08/22 12:30:06;;;;;;;8.60;2.90;;;24.90;78.10;;;;;;5048614;28;20621;-85
2021/08/22 12:32:36;;;;;;;5.80;2.77;;;25.00;78.00;;;;;;5039786;28;20516;-86
2021/08/22 12:35:08;;;;;;;3.20;2.83;;;25.10;78.40;;;;;;5028467;28;20987;-85
2021/08/22 12:37:35;;;;;;;2.77;2.30;;;25.10;78.30;;;;;;5042583;28;20532;-85
2021/08/22 12:40:05;;;;;;;3.50;2.70;;;25.00;78.70;;;;;;5025494;28;20449;-87
2021/08/22 12:42:35;;;;;;;5.10;2.97;;;25.10;79.50;;;;;;5041284;28;20579;-86
2021/08/22 12:45:05;;;;;;;3.83;2.83;;;25.20;79.60;;;;;;5017200;28;20509;-88
2021/08/22 12:47:32;;;;;;;3.20;2.87;;;25.20;80.00;;;;;;5022130;28;20447;-86
2021/08/22 12:49:59;;;;;;;5.60;3.10;;;25.50;80.20;;;;;;5010068;28;20473;-88
2021/08/22 12:52:26;;;;;;;3.60;2.80;;;25.70;79.70;;;;;;5032818;28;20477;-86
2021/08/22 12:54:54;;;;;;;3.13;2.83;;;25.80;79.90;;;;;;5041221;28;21128;-86
2021/08/22 12:57:21;;;;;;;4.40;2.80;;;25.90;80.20;;;;;;5045829;28;20452;-86
2021/08/22 12:59:49;;;;;;;2.60;2.40;;;26.70;78.90;;;;;;5030967;28;20462;-86
2021/08/22 13:02:15;;;;;;;3.57;2.90;;;26.90;77.20;;;;;;5035875;28;20449;-87
2021/08/22 13:04:42;;;;;;;3.40;2.53;;;26.80;76.90;;;;;;5025204;28;20482;-86
2021/08/22 13:07:11;;;;;;;3.37;2.90;;;26.40;78.50;;;;;;5032705;28;20463;-84
2021/08/22 13:09:38;;;;;;;3.90;2.60;;;26.10;78.90;;;;;;5046125;28;20451;-88
2021/08/22 13:12:05;;;;;;;4.10;2.30;;;25.70;80.50;;;;;;5031473;28;20549;-86
2021/08/22 13:14:31;;;;;;;5.80;2.60;;;25.40;81.30;;;;;;5025580;28;20564;-85
2021/08/22 13:16:58;;;;;;;3.53;2.67;;;25.30;82.20;;;;;;5036885;28;20542;-87
2021/08/22 13:19:25;;;;;;;4.50;3.10;;;25.30;82.70;;;;;;5044148;28;20529;-86
2021/08/22 13:21:55;;;;;;;4.33;2.90;;;25.10;83.50;;;;;;5063879;28;20830;-86
2021/08/22 13:24:22;;;;;;;2.97;2.47;;;25.00;84.20;;;;;;5057304;28;20449;-86
2021/08/22 13:26:49;;;;;;;2.90;2.63;;;24.90;84.90;;;;;;5033372;28;20445;-88
2021/08/22 13:29:16;;;;;;;3.67;2.80;;;24.70;85.50;;;;;;5038815;28;20483;-86
2021/08/22 13:31:45;;;;;;;5.13;3.03;;;24.60;86.00;;;;;;5007844;28;20463;-87
2021/08/22 13:34:12;;;;;;;4.30;3.23;;;24.60;86.90;;;;;;5043141;28;20453;-87
2021/08/22 13:36:38;;;;;;;4.07;3.10;;;24.50;87.70;;;;;;5026229;28;20446;-87
2021/08/22 13:39:05;;;;;;;5.70;3.20;;;24.50;88.10;;;;;;5027424;28;20499;-87
2021/08/22 13:41:33;;;;;;;3.70;2.70;;;24.40;88.70;;;;;;5028073;28;21064;-86
2021/08/22 13:44:00;;;;;;;4.40;3.13;;;24.30;89.40;;;;;;5030078;28;20460;-86
2021/08/22 13:46:27;;;;;;;3.33;2.73;;;24.40;89.50;;;;;;5046275;28;21010;-88
2021/08/22 13:48:55;;;;;;;3.17;2.80;;;24.50;88.70;;;;;;5042267;28;20442;-87
2021/08/22 13:51:22;;;;;;;3.77;2.40;;;24.30;89.30;;;;;;5052081;28;20445;-86
2021/08/22 13:53:49;;;;;;;2.43;2.23;;;24.10;89.70;;;;;;5053680;28;20750;-87
2021/08/22 13:56:16;;;;;;;3.30;2.43;;;24.10;89.70;;;;;;5045190;28;20485;-86
2021/08/22 13:58:46;;;;;;;3.03;2.50;;;24.20;90.00;;;;;;5006538;28;20442;-88
2021/08/22 14:01:13;;;;;;;5.17;2.70;;;24.20;89.80;;;;;;5034540;28;20516;-86
2021/08/22 14:03:39;;;;;;;3.17;2.87;;;24.30;89.60;;;;;;5044098;28;20864;-86
2021/08/22 14:06:06;;;;;;;2.93;2.60;;;24.10;90.20;;;;;;5042805;28;20465;-86
2021/08/22 14:08:33;;;;;;;3.60;2.43;;;24.30;90.40;;;;;;5026464;28;20456;-86
2021/08/22 14:11:00;;;;;;;5.70;5.20;;;24.30;90.10;;;;;;5047045;28;20452;-87
2021/08/22 14:13:29;;;;;;;5.30;3.80;;;24.40;90.20;;;;;;5040577;28;20493;-86
2021/08/22 14:15:55;;;;;;;4.50;3.40;;;24.30;90.60;;;;;;5042341;28;20520;-86
2021/08/22 14:18:22;;;;;;;3.10;2.80;;;24.20;90.40;;;;;;5042881;28;20446;-86
2021/08/22 14:20:49;;;;;;;3.73;3.30;;;24.20;90.50;;;;;;5043741;28;20463;-86
2021/08/22 14:23:16;;;;;;;3.90;3.00;;;24.00;90.70;;;;;;5026523;28;20877;-87
2021/08/22 14:25:43;;;;;;;3.47;2.40;;;24.00;90.90;;;;;;5032975;28;20474;-88
2021/08/22 14:28:10;;;;;;;2.63;2.40;;;24.00;91.20;;;;;;5024042;28;20460;-87
2021/08/22 14:30:37;;;;;;;3.57;2.90;;;24.10;91.20;;;;;;5041795;28;20458;-87
2021/08/22 14:33:07;;;;;;;4.43;2.70;;;24.30;90.60;;;;;;5025956;28;20521;-86
2021/08/22 14:35:33;;;;;;;2.87;2.60;;;24.40;90.20;;;;;;5041034;28;20485;-85
2021/08/22 14:38:00;;;;;;;2.47;2.20;;;24.60;89.10;;;;;;5052207;28;20453;-86
2021/08/22 14:40:27;;;;;;;3.27;2.67;;;24.50;87.90;;;;;;5035781;28;21012;-84
2021/08/22 14:42:54;;;;;;;4.27;2.33;;;24.60;87.50;;;;;;5018660;28;20460;-85
2021/08/22 14:45:21;;;;;;;2.37;2.10;;;24.70;86.80;;;;;;5026109;28;20494;-85
2021/08/22 14:47:51;;;;;;;3.70;2.90;;;24.50;87.40;;;;;;5026310;28;20512;-86
2021/08/22 14:50:19;;;;;;;4.20;3.37;;;24.50;88.40;;;;;;5027763;28;20465;-87
2021/08/22 14:52:50;;;;;;;4.97;3.80;;;24.40;88.70;;;;;;5056403;28;20457;-86
2021/08/22 14:55:17;;;;;;;3.27;2.73;;;24.40;89.10;;;;;;5040657;28;20488;-87
2021/08/22 14:57:44;;;;;;;3.20;2.83;;;24.40;89.60;;;;;;5038021;28;20464;-85
2021/08/22 15:00:12;;;;;;;7.30;5.87;;;24.30;89.80;;;;;;5056387;28;20460;-90
2021/08/22 15:02:39;;;;;;;7.30;6.63;;;24.20;89.30;;;;;;5058192;28;20468;-86